Latest Coastal Weather Observations for Mardie

IDW60701

Issued at 8:13 pm WST Monday 26 September 2016 (issued every 10 minutes, with the page automatically refreshed every 10 minutes)

About coastal observations | Map of coastal stations | Coastal observations for WA | Marine services | Other Formats
Station Details ID: 005008 Name: MARDIE Lat: -21.19 Lon: 115.98 Height: 11.0 m
Data from the previous 72 hours. | See also: Recent months at Mardie
Date/Time
WST
Temp
°C
Wind Pressure Rain since
9am
mm
Weather Cloud Vis
km
Sea
Height
m
Swell
Dir  Spd
kts
Gust
kts
hPa Trend Height
m
Period
s
Dir
26/08:00pm 21.9 NW 3 4 1010.7 - 0.0 - - - - - - -
26/07:30pm 23.0 NW 6 9 1010.3 - 0.0 - - - - - - -
26/07:00pm 23.9 WNW 9 13 1010.0 - 0.0 - - - - - - -
26/06:30pm 24.6 WNW 10 13 1009.8 - 0.0 - - - - - - -
26/06:00pm 26.3 WNW 10 18 1009.4 - 0.0 - - - - - - -
26/05:30pm 27.9 WNW 12 17 1009.1 - 0.0 - - - - - - -
26/05:00pm 29.2 WNW 13 19 1009.0 - 0.0 - - - - - - -
26/04:30pm 29.8 WNW 14 19 1008.9 - 0.0 - - - - - - -
26/04:00pm 29.8 WNW 14 18 1008.9 - 0.0 - - - - - - -
26/03:30pm 31.0 NW 15 20 1008.7 - 0.0 - - - - - - -
26/03:00pm 32.2 WNW 11 16 1008.6 - 0.0 - - - - - - -
26/02:30pm 31.4 NNE 6 17 1008.4 - 0.0 - - - - - - -
26/02:00pm 33.3 S 9 15 1008.8 - 0.0 - - - - - - -
26/01:30pm 32.9 SSE 8 17 1009.1 - 0.0 - - - - - - -
26/01:00pm 32.2 ESE 8 13 1009.6 - 0.0 - - - - - - -
26/12:30pm 31.8 SE 7 15 1010.1 - 0.0 - - - - - - -
26/12:00pm 31.7 SSE 7 22 1010.6 - 0.0 - - - - - - -
26/11:30am 30.6 SSE 9 17 1011.2 - 0.0 - - - - - - -
26/11:00am 30.2 SSE 9 15 1011.7 - 0.0 - - - - - - -
26/10:30am 28.7 SSE 10 15 1012.0 - 0.0 - - - - - - -
26/10:00am 28.0 SSE 10 17 1012.2 - 0.0 - - - - - - -
26/09:30am 26.9 S 10 15 1012.5 - 0.0 - - - - - - -
26/09:00am 25.1 S 12 16 1012.5 - 0.0 - - - - - - -
26/08:30am 22.8 S 11 15 1012.6 - 0.0 - - - - - - -
26/08:00am 20.3 S 10 14 1012.4 - 0.0 - - - - - - -
26/07:30am 18.6 SSW 11 14 1012.3 - 0.0 - - - - - - -
26/07:00am 15.6 SW 7 8 1012.0 - 0.0 - - - - - - -
26/06:30am 15.4 SSW 6 8 1011.9 - 0.0 - - - - - - -
26/06:00am 15.7 SSW 6 9 1011.6 - 0.0 - - - - - - -
26/05:30am 15.4 SSW 7 9 1011.1 - 0.0 - - - - - - -
26/05:00am 15.7 SSW 8 11 1010.9 - 0.0 - - - - - - -
26/04:30am 15.9 SSW 7 10 1010.8 - 0.0 - - - - - - -
26/04:00am 16.6 SSW 8 11 1010.6 - 0.0 - - - - - - -
26/03:30am 17.1 SSW 9 12 1010.5 - 0.0 - - - - - - -
26/03:00am 17.8 SSW 9 12 1010.6 - 0.0 - - - - - - -
26/02:30am 18.7 SSW 11 15 1010.7 - 0.0 - - - - - - -
26/02:00am 19.2 SSW 11 15 1011.0 - 0.0 - - - - - - -
26/01:30am 19.4 SW 12 16 1011.1 - 0.0 - - - - - - -
26/01:00am 19.4 SW 11 14 1011.4 - 0.0 - - - - - - -
26/12:30am 19.8 SW 11 15 1011.6 - 0.0 - - - - - - -
26/12:00am 20.2 SW 12 15 1011.8 - 0.0 - - - - - - -
 
Date/Time
WST
Temp
°C
Wind Pressure Rain since
9am
mm
Weather Cloud Vis
km
Sea
Height
m
Swell
Dir  Spd
kts
Gust
kts
hPa Trend Height
m
Period
s
Dir
25/11:30pm 20.5 WSW 10 15 1012.0 - 0.0 - - - - - - -
25/11:00pm 20.4 WSW 8 11 1012.1 - 0.0 - - - - - - -
25/10:30pm 20.5 WSW 8 10 1012.1 - 0.0 - - - - - - -
25/10:00pm 21.1 WSW 8 10 1012.0 - 0.0 - - - - - - -
25/09:30pm 21.3 WSW 8 10 1011.8 - 0.0 - - - - - - -
25/09:00pm 21.9 WSW 9 12 1011.6 - 0.0 - - - - - - -
25/08:30pm 21.5 W 9 12 1011.2 - 0.0 - - - - - - -
25/08:00pm 21.9 W 11 15 1010.9 - 0.0 - - - - - - -
25/07:30pm 22.1 W 13 20 1010.6 - 0.0 - - - - - - -
25/07:00pm 22.1 W 13 18 1010.2 - 0.0 - - - - - - -
25/06:30pm 22.4 W 16 21 1009.8 - 0.0 - - - - - - -
25/06:00pm 23.1 W 17 23 1009.4 - 0.0 - - - - - - -
25/05:30pm 24.1 W 18 24 1009.1 - 0.0 - - - - - - -
25/05:00pm 24.7 W 19 26 1008.7 - 0.0 - - - - - - -
25/04:30pm 25.7 W 20 26 1008.5 - 0.0 - - - - - - -
25/04:00pm 26.7 W 19 26 1008.5 - 0.0 - - - - - - -
25/03:30pm 27.6 W 20 26 1008.5 - 0.0 - - - - - - -
25/03:18pm 27.8 W 18 28 1008.3 - 0.0 - - - - - - -
25/03:00pm 28.0 W 19 27 1008.5 - 0.0 - - - - - - -
25/02:30pm 28.5 WNW 17 26 1008.5 - 0.0 - - - - - - -
25/02:00pm 29.9 W 12 22 1008.9 - 0.0 - - - - - - -
25/01:30pm 30.2 SW 9 18 1009.3 - 0.0 - - - - - - -
25/01:00pm 30.3 WSW 8 12 1009.7 - 0.0 - - - - - - -
25/12:30pm 28.9 SW 10 18 1010.3 - 0.0 - - - - - - -
25/12:00pm 28.9 SSW 10 16 1010.8 - 0.0 - - - - - - -
25/11:30am 28.2 SSW 10 16 1011.4 - 0.0 - - - - - - -
25/11:00am 27.7 SSW 13 18 1011.8 - 0.0 - - - - - - -
25/10:30am 26.7 SSW 13 17 1011.9 - 0.0 - - - - - - -
25/10:00am 26.1 SSW 13 18 1012.0 - 0.0 - - - - - - -
25/09:30am 24.7 SSW 14 19 1012.2 - 0.0 - - - - - - -
25/09:00am 23.0 SSW 14 20 1012.1 - 0.0 - - - - - - -
25/08:30am 21.4 SSW 15 19 1012.0 - 0.0 - - - - - - -
25/08:00am 19.4 SSW 15 21 1011.9 - 0.0 - - - - - - -
25/07:30am 18.0 SSW 13 18 1011.7 - 0.0 - - - - - - -
25/07:00am 15.9 SSW 10 13 1011.7 - 0.0 - - - - - - -
25/06:30am 13.3 SSW 6 8 1011.5 - 0.0 - - - - - - -
25/06:00am 11.8 SW 6 8 1011.2 - 0.0 - - - - - - -
25/05:30am 11.9 SW 6 7 1011.0 - 0.0 - - - - - - -
25/05:00am 12.8 SW 7 9 1010.8 - 0.0 - - - - - - -
25/04:30am 13.0 SW 6 8 1010.8 - 0.0 - - - - - - -
25/04:00am 13.5 SW 6 9 1010.7 - 0.0 - - - - - - -
25/03:30am 14.0 SW 6 8 1010.8 - 0.0 - - - - - - -
25/03:00am 15.1 SW 6 8 1010.8 - 0.0 - - - - - - -
25/02:30am 15.1 SW 5 7 1010.7 - 0.0 - - - - - - -
25/02:00am 15.0 WSW 5 6 1010.8 - 0.0 - - - - - - -
25/01:30am 15.7 WSW 5 6 1010.9 - 0.0 - - - - - - -
25/01:00am 16.7 WSW 5 7 1011.2 - 0.0 - - - - - - -
25/12:30am 17.3 WSW 5 7 1011.3 - 0.0 - - - - - - -
25/12:00am 17.8 W 4 5 1011.4 - 0.0 - - - - - - -
 
Date/Time
WST
Temp
°C
Wind Pressure Rain since
9am
mm
Weather Cloud Vis
km
Sea
Height
m
Swell
Dir  Spd
kts
Gust
kts
hPa Trend Height
m
Period
s
Dir
24/11:30pm 18.7 W 5 6 1011.6 - 0.0 - - - - - - -
24/11:00pm 19.3 WNW 5 6 1011.8 - 0.0 - - - - - - -
24/10:30pm 19.8 WNW 6 7 1012.1 - 0.0 - - - - - - -
24/10:00pm 20.3 WNW 6 8 1012.2 - 0.0 - - - - - - -
24/09:30pm 20.1 WNW 4 7 1012.4 - 0.0 - - - - - - -
24/09:00pm 19.3 NW 5 6 1012.3 - 0.0 - - - - - - -
24/08:30pm 20.0 NW 5 6 1012.1 - 0.0 - - - - - - -
24/08:00pm 21.0 WNW 7 9 1011.8 - 0.0 - - - - - - -
24/07:30pm 21.0 WNW 5 8 1011.5 - 0.0 - - - - - - -
24/07:00pm 21.6 WNW 7 10 1011.3 - 0.0 - - - - - - -
24/06:30pm 22.1 WNW 9 13 1011.1 - 0.0 - - - - - - -
24/06:00pm 22.7 WNW 10 15 1010.9 - 0.0 - - - - - - -
24/05:30pm 23.6 WNW 11 16 1010.8 - 0.0 - - - - - - -
24/05:00pm 24.7 WNW 14 20 1010.6 - 0.0 - - - - - - -
24/04:30pm 26.0 WNW 13 19 1010.4 - 0.0 - - - - - - -
24/04:00pm 27.3 WNW 12 16 1010.4 - 0.0 - - - - - - -
24/03:30pm 27.5 WNW 12 16 1010.2 - 0.0 - - - - - - -
24/03:00pm 27.7 WNW 13 17 1010.2 - 0.0 - - - - - - -
24/02:30pm 27.7 NW 14 18 1010.4 - 0.0 - - - - - - -
24/02:00pm 28.4 NW 12 16 1010.6 - 0.0 - - - - - - -
24/01:30pm 28.1 WNW 14 21 1010.9 - 0.0 - - - - - - -
24/01:00pm 28.8 S 5 15 1011.1 - 0.0 - - - - - - -
24/12:30pm 29.0 NW 3 6 1011.5 - 0.0 - - - - - - -
24/12:00pm 28.5 W 3 8 1012.0 - 0.0 - - - - - - -
24/11:30am 27.8 SE 5 8 1012.5 - 0.0 - - - - - - -
24/11:00am 27.0 E 3 6 1012.9 - 0.0 - - - - - - -
24/10:30am 26.6 S 5 10 1013.2 - 0.0 - - - - - - -
24/10:00am 25.6 SSE 7 12 1013.6 - 0.0 - - - - - - -
24/09:30am 24.9 SSE 9 12 1014.0 - 0.0 - - - - - - -
24/09:00am 23.9 SSE 8 13 1014.1 - 0.0 - - - - - - -
24/08:30am 22.0 S 9 12 1014.0 - 0.0 - - - - - - -
24/08:00am 20.5 S 8 12 1013.8 - 0.0 - - - - - - -
24/07:30am 17.9 S 9 13 1013.5 - 0.0 - - - - - - -
24/07:00am 15.0 SSW 5 7 1013.2 - 0.0 - - - - - - -
24/06:30am 12.9 SSW 5 7 1012.9 - 0.0 - - - - - - -
24/06:00am 12.6 SSW 6 8 1012.5 - 0.0 - - - - - - -
24/05:30am 12.7 SSW 5 6 1012.1 - 0.0 - - - - - - -
24/05:00am 13.1 SSW 4 7 1011.9 - 0.0 - - - - - - -
24/04:30am 13.7 SSW 7 9 1011.5 - 0.0 - - - - - - -
24/04:00am 14.0 S 7 8 1011.4 - 0.0 - - - - - - -
24/03:30am 13.7 S 6 6 1011.4 - 0.0 - - - - - - -
24/03:00am 14.5 S 4 6 1011.4 - 0.0 - - - - - - -
24/02:30am 15.3 S 8 9 1011.5 - 0.0 - - - - - - -
24/02:00am 15.3 S 7 8 1011.6 - 0.0 - - - - - - -
24/01:30am 15.7 S 7 8 1011.7 - 0.0 - - - - - - -
24/01:00am 16.1 S 6 7 1011.8 - 0.0 - - - - - - -
24/12:30am 17.1 SSW 7 9 1011.9 - 0.0 - - - - - - -
24/12:00am 18.0 SSW 6 8 1012.1 - 0.0 - - - - - - -
 
Date/Time
WST
Temp
°C
Wind Pressure Rain since
9am
mm
Weather Cloud Vis
km
Sea
Height
m
Swell
Dir  Spd
kts
Gust
kts
hPa Trend Height
m
Period
s
Dir
23/11:30pm 19.0 SSW 8 10 1012.0 - 0.0 - - - - - - -
23/11:00pm 19.9 SSW 9 11 1012.1 - 0.0 - - - - - - -
23/10:30pm 19.7 SSW 7 8 1012.2 - 0.0 - - - - - - -
23/10:00pm 20.6 SSW 7 8 1012.3 - 0.0 - - - - - - -
23/09:30pm 21.4 SSW 7 9 1012.2 - 0.0 - - - - - - -
23/09:00pm 21.1 SSW 5 6 1011.9 - 0.0 - - - - - - -
23/08:30pm 22.8 SSW 7 10 1011.5 - 0.0 - - - - - - -

Other Formats:

Comma delimited format used in spreadsheet applications
http://www.bom.gov.au/fwo/IDW60701/IDW60701.94306.axf

JavaScript Object Notation format (JSON) in row-major order
http://www.bom.gov.au/fwo/IDW60701/IDW60701.94306.json